createdAt,value
2023-03-11T00:00:09.958Z,842.73
2023-03-11T00:01:09.955Z,863.29
2023-03-11T00:02:09.946Z,872.81
2023-03-11T00:03:09.916Z,877.94
2023-03-11T00:04:09.908Z,889.55
2023-03-11T00:05:09.978Z,878.51
2023-03-11T00:06:09.870Z,876.22
2023-03-11T00:07:09.871Z,854.51
2023-03-11T00:08:09.884Z,865.51
2023-03-11T00:09:09.871Z,860.52
2023-03-11T00:10:09.832Z,849.65
2023-03-11T00:11:09.851Z,847.51
2023-03-11T00:12:09.802Z,834.37
2023-03-11T00:13:09.800Z,829.73
2023-03-11T00:14:09.789Z,830.76
2023-03-11T00:15:09.774Z,810.73
2023-03-11T00:16:09.850Z,784.26
2023-03-11T00:17:09.773Z,780.16
2023-03-11T00:18:09.748Z,788.39
2023-03-11T00:19:09.715Z,779.71
2023-03-11T00:20:09.701Z,799.64
2023-03-11T00:21:09.682Z,835.40
2023-03-11T00:22:09.691Z,834.89
2023-03-11T00:23:09.706Z,807.81
2023-03-11T00:24:09.668Z,800.59
2023-03-11T00:25:09.645Z,792.58
2023-03-11T00:26:09.627Z,794.92
2023-03-11T00:27:09.618Z,802.03
2023-03-11T00:28:09.607Z,793.04
2023-03-11T00:29:09.611Z,793.04
2023-03-11T00:30:09.574Z,787.93
2023-03-11T00:31:09.597Z,762.04
2023-03-11T00:32:09.564Z,740.71
2023-03-11T00:33:09.551Z,730.25
2023-03-11T00:34:11.154Z,717.77
2023-03-11T00:35:09.571Z,702.01
2023-03-11T00:36:09.528Z,735.04
2023-03-11T00:37:09.479Z,753.50
2023-03-11T00:38:09.470Z,758.60
2023-03-11T00:39:09.458Z,751.40
2023-03-11T00:40:09.453Z,772.10
2023-03-11T00:41:09.468Z,787.47
2023-03-11T00:42:09.418Z,806.84
2023-03-11T00:43:09.415Z,820.62
2023-03-11T00:44:09.399Z,805.87
2023-03-11T00:45:09.389Z,804.42
2023-03-11T00:46:09.460Z,820.62
2023-03-11T00:47:09.408Z,830.25
2023-03-11T00:48:09.342Z,811.71
2023-03-11T00:49:09.342Z,806.84
2023-03-11T00:50:09.312Z,797.75
2023-03-11T00:51:09.309Z,780.61
2023-03-11T00:52:09.293Z,773.88
2023-03-11T00:53:09.309Z,765.95
2023-03-11T00:54:09.281Z,780.16
2023-03-11T00:55:09.275Z,761.61
2023-03-11T00:56:09.247Z,752.24
2023-03-11T00:57:09.226Z,772.99
2023-03-11T00:58:09.217Z,796.80
2023-03-11T00:59:09.240Z,788.39
2023-03-11T01:00:09.189Z,777.46
2023-03-11T01:01:09.224Z,765.95
2023-03-11T01:02:09.180Z,781.52
2023-03-11T01:03:09.172Z,788.86
2023-03-11T01:04:09.172Z,797.75
2023-03-11T01:05:09.157Z,799.64
2023-03-11T01:06:09.127Z,816.14
2023-03-11T01:07:11.370Z,820.12
2023-03-11T01:08:09.095Z,813.18
2023-03-11T01:09:09.103Z,810.73
2023-03-11T01:10:09.065Z,810.73
2023-03-11T01:11:09.085Z,792.11
2023-03-11T01:12:09.039Z,794.45
2023-03-11T01:13:09.041Z,799.64
2023-03-11T01:14:09.028Z,806.84
2023-03-11T01:15:09.009Z,801.55
2023-03-11T01:16:09.100Z,790.71
2023-03-11T01:17:09.026Z,766.82
2023-03-11T01:18:08.971Z,773.43
2023-03-11T01:19:08.955Z,787.93
2023-03-11T01:20:08.948Z,797.75
2023-03-11T01:21:08.934Z,800.59
2023-03-11T01:22:08.918Z,798.22
2023-03-11T01:23:08.941Z,780.16
2023-03-11T01:24:08.889Z,760.32
2023-03-11T01:25:08.882Z,751.82
2023-03-11T01:26:08.875Z,739.90
2023-03-11T01:27:08.858Z,723.17
2023-03-11T01:28:08.838Z,726.30
2023-03-11T01:29:08.853Z,713.19
2023-03-11T01:30:08.824Z,727.09
2023-03-11T01:31:08.861Z,727.09
2023-03-11T01:32:08.787Z,730.25
2023-03-11T01:33:08.779Z,735.85
2023-03-11T01:34:08.770Z,721.62
2023-03-11T01:35:08.786Z,707.19
2023-03-11T01:36:08.832Z,690.47
2023-03-11T01:37:08.735Z,687.64
2023-03-11T01:38:08.728Z,701.28
2023-03-11T01:39:08.695Z,702.75
2023-03-11T01:40:08.687Z,730.25
2023-03-11T01:41:08.707Z,750.56
2023-03-11T01:42:08.679Z,730.25
2023-03-11T01:43:08.653Z,725.52
2023-03-11T01:44:08.636Z,723.95
2023-03-11T01:45:08.626Z,731.04
2023-03-11T01:46:08.679Z,738.27
2023-03-11T01:47:08.661Z,734.24
2023-03-11T01:48:08.593Z,738.27
2023-03-11T01:49:08.575Z,741.53
2023-03-11T01:50:08.561Z,739.08
2023-03-11T01:51:08.551Z,734.24
2023-03-11T01:52:08.539Z,715.47
2023-03-11T01:53:08.576Z,732.64
2023-03-11T01:54:08.535Z,763.77
2023-03-11T01:55:08.504Z,779.26
2023-03-11T01:56:08.481Z,778.81
2023-03-11T01:57:08.481Z,761.61
2023-03-11T01:58:08.462Z,741.53
2023-03-11T01:59:08.470Z,731.84
2023-03-11T02:00:08.552Z,735.04
2023-03-11T02:01:14.890Z,757.32
2023-03-11T02:02:08.472Z,753.92
2023-03-11T02:03:08.541Z,773.88
2023-03-11T02:04:08.399Z,759.46
2023-03-11T02:05:08.427Z,763.34
2023-03-11T02:06:08.361Z,761.18
2023-03-11T02:07:08.354Z,764.64
2023-03-11T02:08:08.338Z,756.47
2023-03-11T02:09:08.329Z,751.40
2023-03-11T02:10:08.321Z,749.30
2023-03-11T02:11:08.362Z,753.50
2023-03-11T02:12:08.300Z,735.04
2023-03-11T02:13:08.268Z,735.04
2023-03-11T02:14:08.294Z,719.30
2023-03-11T02:15:08.256Z,710.18
2023-03-11T02:16:08.362Z,702.75
2023-03-11T02:17:08.272Z,693.32
2023-03-11T02:18:08.236Z,669.82
2023-03-11T02:19:08.229Z,675.20
2023-03-11T02:20:08.201Z,712.44
2023-03-11T02:21:08.224Z,732.64
2023-03-11T02:22:08.190Z,738.27
2023-03-11T02:23:08.212Z,738.27
2023-03-11T02:24:08.167Z,728.66
2023-03-11T02:25:08.144Z,731.04
2023-03-11T02:26:08.125Z,725.52
2023-03-11T02:27:08.122Z,734.24
2023-03-11T02:28:08.127Z,731.04
2023-03-11T02:29:08.119Z,732.64
2023-03-11T02:30:08.068Z,730.25
2023-03-11T02:31:08.150Z,704.96
2023-03-11T02:32:08.074Z,696.92
2023-03-11T02:33:08.037Z,701.28
2023-03-11T02:34:08.025Z,748.05
2023-03-11T02:35:08.061Z,773.43
2023-03-11T02:36:08.139Z,794.45
2023-03-11T02:37:07.980Z,821.12
2023-03-11T02:38:08.023Z,830.25
2023-03-11T02:39:07.988Z,823.13
2023-03-11T02:40:07.954Z,833.33
2023-03-11T02:41:07.976Z,826.17
2023-03-11T02:42:07.927Z,808.29
2023-03-11T02:43:07.965Z,817.63
2023-03-11T02:44:07.905Z,840.62
2023-03-11T02:45:07.892Z,843.26
2023-03-11T02:46:07.862Z,848.04
2023-03-11T02:47:07.903Z,847.51
2023-03-11T02:48:07.854Z,846.44
2023-03-11T02:49:07.866Z,840.62
2023-03-11T02:50:07.842Z,824.14
2023-03-11T02:51:07.821Z,825.15
2023-03-11T02:52:07.805Z,842.20
2023-03-11T02:53:07.845Z,876.79
2023-03-11T02:54:07.778Z,864.95
2023-03-11T02:55:07.768Z,871.11
2023-03-11T02:56:07.772Z,891.32
2023-03-11T02:57:07.739Z,902.08
2023-03-11T02:58:07.743Z,895.47
2023-03-11T02:59:07.762Z,886.03
2023-03-11T03:00:07.686Z,885.45
2023-03-11T03:01:07.712Z,905.72
2023-03-11T03:02:07.699Z,930.15
2023-03-11T03:03:07.671Z,940.56
2023-03-11T03:04:07.836Z,967.62
2023-03-11T03:05:07.664Z,983.19
2023-03-11T03:06:07.612Z,994.09
2023-03-11T03:07:07.600Z,1006.74
2023-03-11T03:08:07.596Z,1003.73
2023-03-11T03:09:07.684Z,1015.86
2023-03-11T03:10:07.604Z,1009.00
2023-03-11T03:11:07.647Z,972.52
2023-03-11T03:12:07.568Z,956.61
2023-03-11T03:13:07.528Z,944.52
2023-03-11T03:14:07.516Z,917.46
2023-03-11T03:15:07.525Z,900.27
2023-03-11T03:16:07.530Z,905.11
2023-03-11T03:17:07.571Z,910.01
2023-03-11T03:18:07.479Z,913.72
2023-03-11T03:19:07.455Z,919.97
2023-03-11T03:20:07.464Z,917.46
2023-03-11T03:21:07.433Z,921.23
2023-03-11T03:22:07.420Z,900.27
2023-03-11T03:23:07.440Z,899.66
2023-03-11T03:24:07.421Z,930.15
2023-03-11T03:25:07.389Z,932.09
2023-03-11T03:26:07.372Z,903.29
2023-03-11T03:27:07.361Z,881.39
2023-03-11T03:28:07.348Z,891.32
2023-03-11T03:29:07.359Z,905.72
2023-03-11T03:30:07.336Z,935.33
2023-03-11T03:31:07.304Z,934.03
2023-03-11T03:32:07.351Z,919.34
2023-03-11T03:33:07.319Z,902.68
2023-03-11T03:34:07.285Z,900.87
2023-03-11T03:35:07.291Z,902.08
2023-03-11T03:36:07.346Z,900.87
2023-03-11T03:37:07.255Z,937.93
2023-03-11T03:38:07.225Z,966.23
2023-03-11T03:39:07.236Z,973.93
2023-03-11T03:40:07.204Z,973.93
2023-03-11T03:41:07.247Z,975.34
2023-03-11T03:42:07.218Z,987.52
2023-03-11T03:43:07.153Z,1006.74
2023-03-11T03:44:07.159Z,997.77
2023-03-11T03:45:07.177Z,1002.23
2023-03-11T03:46:07.223Z,1014.33
2023-03-11T03:47:07.143Z,1017.40
2023-03-11T03:48:07.096Z,1022.81
2023-03-11T03:49:07.109Z,1017.40
2023-03-11T03:50:07.088Z,1018.94
2023-03-11T03:51:07.079Z,1015.86
2023-03-11T03:52:07.044Z,1023.59
2023-03-11T03:53:07.055Z,1003.73
2023-03-11T03:54:07.036Z,1002.23
2023-03-11T03:55:07.094Z,1010.52
2023-03-11T03:56:07.009Z,1010.52
2023-03-11T03:57:06.997Z,1008.24
2023-03-11T03:58:06.976Z,1018.94
2023-03-11T03:59:06.999Z,1041.83
2023-03-11T04:00:06.967Z,1045.07
2023-03-11T04:01:06.948Z,1057.39
2023-03-11T04:02:06.953Z,1083.80
2023-03-11T04:03:06.996Z,1117.11
2023-03-11T04:04:06.903Z,1118.97
2023-03-11T04:05:06.928Z,1102.46
2023-03-11T04:06:06.877Z,1138.86
2023-03-11T04:07:06.875Z,1131.20
2023-03-11T04:08:06.863Z,1123.64
2023-03-11T04:09:06.838Z,1100.65
2023-03-11T04:10:06.863Z,1097.06
2023-03-11T04:11:06.850Z,1113.41
2023-03-11T04:12:06.830Z,1093.49
2023-03-11T04:13:06.794Z,1064.08
2023-03-11T04:14:06.786Z,1086.43
2023-03-11T04:15:06.795Z,1072.57
2023-03-11T04:16:06.786Z,1088.19
2023-03-11T04:17:06.818Z,1116.18
2023-03-11T04:18:06.723Z,1117.11
2023-03-11T04:19:06.750Z,1130.25
2023-03-11T04:20:06.724Z,1129.30
2023-03-11T04:21:06.744Z,1112.49
2023-03-11T04:22:06.673Z,1114.33
2023-03-11T04:23:06.702Z,1128.35
2023-03-11T04:24:06.651Z,1145.66
2023-03-11T04:25:06.675Z,1136.94
2023-03-11T04:26:06.627Z,1122.70
2023-03-11T04:27:06.606Z,1095.28
2023-03-11T04:28:06.603Z,1066.61
2023-03-11T04:29:06.634Z,1036.21
2023-03-11T04:30:06.587Z,1000.00
2023-03-11T04:31:06.683Z,940.56
2023-03-11T04:32:06.548Z,900.27
2023-03-11T04:33:06.556Z,878.51
2023-03-11T04:34:06.528Z,864.40
2023-03-11T04:35:06.677Z,848.58
2023-03-11T04:36:06.543Z,865.51
2023-03-11T04:37:06.512Z,856.69
2023-03-11T04:38:06.470Z,849.12
2023-03-11T04:39:06.482Z,843.79
2023-03-11T04:40:06.440Z,836.96
2023-03-11T04:41:06.478Z,830.25
2023-03-11T04:42:06.426Z,813.67
2023-03-11T04:43:06.428Z,800.59
2023-03-11T04:44:06.406Z,785.17
2023-03-11T04:45:06.379Z,772.10
2023-03-11T04:46:06.453Z,759.89
2023-03-11T04:47:06.389Z,738.27
2023-03-11T04:48:06.405Z,714.71
2023-03-11T04:49:06.339Z,751.40
2023-03-11T04:50:06.347Z,804.91
2023-03-11T04:51:06.317Z,882.55
2023-03-11T04:52:06.310Z,917.46
2023-03-11T04:53:06.312Z,921.23
2023-03-11T04:54:06.288Z,923.13
2023-03-11T04:55:06.253Z,930.79
2023-03-11T04:56:06.276Z,953.90
2023-03-11T04:57:06.232Z,982.47
2023-03-11T04:58:06.232Z,1010.52
2023-03-11T04:59:06.242Z,1029.86
2023-03-11T05:00:06.207Z,1054.07
2023-03-11T05:01:06.242Z,1045.88
2023-03-11T05:02:06.174Z,1042.64
2023-03-11T05:03:06.168Z,1025.93
2023-03-11T05:04:06.164Z,1015.86
2023-03-11T05:05:06.163Z,1009.76
2023-03-11T05:06:06.131Z,1010.52
2023-03-11T05:07:06.134Z,1025.15
2023-03-11T05:08:06.123Z,1024.37
2023-03-11T05:09:06.085Z,1028.29
2023-03-11T05:10:06.081Z,1042.64
2023-03-11T05:11:06.081Z,1034.61
2023-03-11T05:12:06.055Z,1018.17
2023-03-11T05:13:06.050Z,1016.63
2023-03-11T05:14:06.080Z,1000.00
2023-03-11T05:15:06.023Z,1002.23
2023-03-11T05:16:06.041Z,1003.73
2023-03-11T05:17:06.015Z,1004.48
2023-03-11T05:18:05.992Z,1009.76
2023-03-11T05:19:05.954Z,994.09
2023-03-11T05:20:05.951Z,974.64
2023-03-11T05:21:05.941Z,977.47
2023-03-11T05:22:05.964Z,971.82
2023-03-11T05:23:05.945Z,969.72
2023-03-11T05:24:05.903Z,946.52
2023-03-11T05:25:05.900Z,939.24
2023-03-11T05:26:05.888Z,981.75
2023-03-11T05:27:05.884Z,1020.48
2023-03-11T05:28:05.860Z,1040.22
2023-03-11T05:29:05.862Z,1028.29
2023-03-11T05:30:05.836Z,1044.25
2023-03-11T05:31:05.833Z,1045.88
2023-03-11T05:32:05.803Z,1050.78
2023-03-11T05:33:05.785Z,1078.59
2023-03-11T05:34:05.798Z,1089.95
2023-03-11T05:35:05.810Z,1079.45
2023-03-11T05:36:05.809Z,1103.36
2023-03-11T05:37:05.751Z,1098.86
2023-03-11T05:38:05.724Z,1088.19
2023-03-11T05:39:05.712Z,1103.36
2023-03-11T05:40:05.739Z,1096.17
2023-03-11T05:41:05.733Z,1129.30
2023-03-11T05:42:05.685Z,1128.35
2023-03-11T05:43:05.669Z,1133.11
2023-03-11T05:44:05.661Z,1113.41
2023-03-11T05:45:05.694Z,1111.57
2023-03-11T05:46:05.728Z,1100.65
2023-03-11T05:47:05.653Z,1106.08
2023-03-11T05:48:05.621Z,1111.57
2023-03-11T05:49:05.602Z,1114.33
2023-03-11T05:50:05.598Z,1029.86
2023-03-11T05:51:05.586Z,1013.56
2023-03-11T05:52:05.573Z,1039.41
2023-03-11T05:53:05.575Z,1091.72
2023-03-11T05:54:05.539Z,1089.95
2023-03-11T05:55:05.543Z,1073.42
2023-03-11T05:56:05.506Z,1082.06
2023-03-11T05:57:05.515Z,1067.46
2023-03-11T05:58:05.556Z,1075.14
2023-03-11T05:59:05.537Z,1098.86
2023-03-11T06:00:05.501Z,1104.27
2023-03-11T06:01:05.445Z,1139.83
2023-03-11T06:02:05.451Z,1160.48
2023-03-11T06:03:05.442Z,1174.67
2023-03-11T06:04:05.533Z,1194.49
2023-03-11T06:05:08.205Z,1194.49
2023-03-11T06:06:05.375Z,1238.49
2023-03-11T06:07:05.382Z,1260.54
2023-03-11T06:08:05.373Z,1307.09
2023-03-11T06:09:05.365Z,1308.36
2023-03-11T06:10:05.317Z,1323.82
2023-03-11T06:11:05.366Z,1293.27
2023-03-11T06:12:05.314Z,1261.73
2023-03-11T06:13:05.296Z,1244.22
2023-03-11T06:14:05.293Z,1230.56
2023-03-11T06:15:05.278Z,1207.36
2023-03-11T06:16:05.357Z,1159.48
2023-03-11T06:17:05.286Z,1187.11
2023-03-11T06:18:05.279Z,1183.98
2023-03-11T06:19:05.216Z,1166.52
2023-03-11T06:20:05.199Z,1162.49
2023-03-11T06:21:05.196Z,1158.48
2023-03-11T06:22:05.243Z,1183.98
2023-03-11T06:23:05.653Z,1214.99
2023-03-11T06:24:05.196Z,1229.43
2023-03-11T06:25:05.145Z,1261.73
2023-03-11T06:26:05.178Z,1260.54
2023-03-11T06:27:05.121Z,1238.49
2023-03-11T06:28:05.156Z,1196.62
2023-03-11T06:29:05.161Z,1162.49
2023-03-11T06:30:05.105Z,1149.57
2023-03-11T06:31:05.103Z,1146.63
2023-03-11T06:32:05.064Z,1148.59
2023-03-11T06:33:05.043Z,1161.48
2023-03-11T06:34:05.019Z,1185.02
2023-03-11T06:35:05.145Z,1175.70
2023-03-11T06:36:05.078Z,1203.04
2023-03-11T06:37:05.031Z,1220.51
2023-03-11T06:38:04.981Z,1236.21
2023-03-11T06:39:05.006Z,1264.10
2023-03-11T06:40:04.950Z,1270.07
2023-03-11T06:41:05.006Z,1257.01
2023-03-11T06:42:04.918Z,1257.01
2023-03-11T06:43:04.923Z,1227.19
2023-03-11T06:44:04.992Z,1209.53
2023-03-11T06:45:04.896Z,1181.90
2023-03-11T06:46:04.964Z,1197.68
2023-03-11T06:47:04.916Z,1172.62
2023-03-11T06:48:04.856Z,1141.77
2023-03-11T06:49:04.872Z,1129.30
2023-03-11T06:50:04.889Z,1111.57
2023-03-11T06:51:04.847Z,1125.52
2023-03-11T06:52:04.833Z,1128.35
2023-03-11T06:53:04.833Z,1101.56
2023-03-11T06:54:04.796Z,1101.56
2023-03-11T06:55:04.778Z,1102.46
2023-03-11T06:56:04.740Z,1121.77
2023-03-11T06:57:04.734Z,1137.90
2023-03-11T06:58:04.728Z,1143.71
2023-03-11T06:59:04.807Z,1132.15
2023-03-11T07:00:04.685Z,1119.90
2023-03-11T07:01:04.771Z,1121.77
2023-03-11T07:02:05.671Z,1153.52
2023-03-11T07:03:04.662Z,1165.51
2023-03-11T07:04:04.674Z,1152.53
2023-03-11T07:05:04.671Z,1113.41
2023-03-11T07:06:06.644Z,1092.61
2023-03-11T07:07:04.616Z,1072.57
2023-03-11T07:08:04.619Z,1109.74
2023-03-11T07:09:04.595Z,1166.52
2023-03-11T07:10:04.582Z,1183.98
2023-03-11T07:11:04.613Z,1160.48
2023-03-11T07:12:06.655Z,1145.66
2023-03-11T07:13:04.584Z,1152.53
2023-03-11T07:14:04.526Z,1145.66
2023-03-11T07:15:04.598Z,1141.77
2023-03-11T07:16:04.525Z,1157.49
2023-03-11T07:17:04.532Z,1168.55
2023-03-11T07:18:04.490Z,1166.52
2023-03-11T07:19:04.460Z,1199.82
2023-03-11T07:20:04.442Z,1218.30
2023-03-11T07:21:04.444Z,1179.82
2023-03-11T07:22:04.433Z,1151.54
2023-03-11T07:23:04.470Z,1136.94
2023-03-11T07:24:04.444Z,1145.66
2023-03-11T07:25:04.400Z,1145.66
2023-03-11T07:26:04.375Z,1126.46
2023-03-11T07:27:04.370Z,1146.63
2023-03-11T07:28:04.340Z,1151.54
2023-03-11T07:29:04.402Z,1153.52
2023-03-11T07:30:04.326Z,1170.58
2023-03-11T07:31:04.309Z,1078.59
2023-03-11T07:32:04.452Z,1012.80
2023-03-11T07:33:04.282Z,983.19
2023-03-11T07:34:04.370Z,883.71
2023-03-11T07:35:04.308Z,777.46
2023-03-11T07:36:04.314Z,823.64
2023-03-11T07:37:04.244Z,861.08
2023-03-11T07:38:04.222Z,912.48
2023-03-11T07:39:04.555Z,905.72
2023-03-11T07:40:04.200Z,914.34
2023-03-11T07:41:04.215Z,929.51
2023-03-11T07:42:04.228Z,1005.98
2023-03-11T07:43:04.186Z,828.71
2023-03-11T07:44:04.178Z,812.20
2023-03-11T07:45:04.137Z,802.51
2023-03-11T07:46:04.124Z,794.92
2023-03-11T07:47:04.151Z,645.99
2023-03-11T07:48:04.266Z,565.99
2023-03-11T07:49:04.084Z,525.28
2023-03-11T07:50:04.088Z,487.54
2023-03-11T07:51:04.046Z,255.36
2023-03-11T07:52:04.053Z,216.98
2023-03-11T07:53:04.080Z,234.36
2023-03-11T07:54:04.043Z,273.08
2023-03-11T07:55:04.034Z,313.77
2023-03-11T07:56:04.007Z,356.78
2023-03-11T07:57:03.988Z,412.16
2023-03-11T07:58:03.970Z,446.69
2023-03-11T07:59:04.045Z,504.38
2023-03-11T08:00:03.987Z,552.49
2023-03-11T08:01:03.922Z,580.16
2023-03-11T08:02:03.982Z,602.00
2023-03-11T08:03:03.904Z,633.20
2023-03-11T08:04:03.903Z,663.86
2023-03-11T08:05:03.919Z,708.68
2023-03-11T08:06:03.861Z,758.17
2023-03-11T08:07:03.852Z,799.64
2023-03-11T08:08:03.854Z,877.94
2023-03-11T08:09:03.895Z,905.72
2023-03-11T08:10:03.824Z,928.23
2023-03-11T08:11:03.876Z,944.52
2023-03-11T08:12:03.804Z,962.78
2023-03-11T08:13:03.806Z,1002.98
2023-03-11T08:14:03.786Z,1025.93
2023-03-11T08:15:03.774Z,1037.01
2023-03-11T08:16:03.831Z,1060.72
2023-03-11T08:17:03.783Z,1115.26
2023-03-11T08:18:03.727Z,1106.08
2023-03-11T08:19:03.744Z,1094.39
2023-03-11T08:20:03.708Z,1111.57
2023-03-11T08:21:03.684Z,1121.77
2023-03-11T08:22:03.832Z,1147.61
2023-03-11T08:23:03.688Z,1128.35
2023-03-11T08:24:06.154Z,1166.52
2023-03-11T08:25:03.628Z,1270.07
2023-03-11T08:26:03.630Z,1280.95
2023-03-11T08:27:03.605Z,1336.98
2023-03-11T08:28:03.603Z,1379.49
2023-03-11T08:29:03.641Z,1471.55
2023-03-11T08:30:03.600Z,1455.63
2023-03-11T08:31:03.616Z,1524.94
2023-03-11T08:32:03.542Z,1614.65
2023-03-11T08:33:03.726Z,1612.71
2023-03-11T08:34:03.524Z,1533.64
2023-03-11T08:35:03.603Z,1492.79
2023-03-11T08:36:03.619Z,1512.94
2023-03-11T08:37:03.480Z,1579.56
2023-03-11T08:38:03.461Z,1608.85
2023-03-11T08:39:03.594Z,1721.05
2023-03-11T08:40:03.475Z,1800.54
2023-03-11T08:41:03.435Z,1860.30
2023-03-11T08:42:03.421Z,1736.60
2023-03-11T08:43:03.409Z,1672.89
2023-03-11T08:44:03.381Z,1556.71
2023-03-11T08:45:03.411Z,1644.25
2023-03-11T08:46:03.397Z,1826.20
2023-03-11T08:47:03.391Z,2007.46
2023-03-11T08:48:03.647Z,2108.15
2023-03-11T08:49:03.330Z,2091.76
2023-03-11T08:50:03.301Z,2019.52
2023-03-11T08:51:03.320Z,1975.04
2023-03-11T08:52:03.289Z,2021.04
2023-03-11T08:53:03.322Z,2098.28
2023-03-11T08:54:03.268Z,1698.23
2023-03-11T08:55:03.289Z,1693.95
2023-03-11T08:56:03.238Z,1655.38
2023-03-11T08:57:03.214Z,1644.25
2023-03-11T08:58:03.190Z,1721.05
2023-03-11T08:59:03.253Z,1786.19
2023-03-11T09:00:03.172Z,1788.56
2023-03-11T09:01:03.179Z,1804.16
2023-03-11T09:02:03.178Z,1807.80
2023-03-11T09:03:03.158Z,1712.29
2023-03-11T09:04:03.122Z,1645.26
2023-03-11T09:05:03.167Z,1592.66
2023-03-11T09:06:03.172Z,1662.55
2023-03-11T09:07:03.087Z,1755.87
2023-03-11T09:08:05.260Z,1839.94
2023-03-11T09:09:03.060Z,1914.59
2023-03-11T09:10:03.056Z,1857.73
2023-03-11T09:11:03.093Z,1684.41
2023-03-11T09:12:03.027Z,1753.58
2023-03-11T09:13:03.004Z,1921.43
2023-03-11T09:14:03.003Z,1936.65
2023-03-11T09:15:03.043Z,1893.03
2023-03-11T09:16:03.005Z,1834.92
2023-03-11T09:17:02.982Z,1972.14
2023-03-11T09:18:02.937Z,2001.49
2023-03-11T09:19:02.969Z,1995.55
2023-03-11T09:20:02.930Z,2192.34
2023-03-11T09:21:02.928Z,2241.67
2023-03-11T09:22:02.901Z,2331.02
2023-03-11T09:23:02.919Z,2642.44
2023-03-11T09:24:02.875Z,2831.58
2023-03-11T09:25:02.877Z,2892.47
2023-03-11T09:26:02.844Z,2650.25
2023-03-11T09:27:02.842Z,2599.03
2023-03-11T09:28:02.828Z,2756.15
2023-03-11T09:29:02.837Z,2813.81
2023-03-11T09:30:02.802Z,2616.73
2023-03-11T09:31:02.888Z,2586.54
2023-03-11T09:32:02.773Z,2537.74
2023-03-11T09:33:02.754Z,2733.74
2023-03-11T09:34:02.744Z,2943.11
2023-03-11T09:35:02.782Z,3095.51
2023-03-11T09:36:02.748Z,3339.54
2023-03-11T09:37:02.710Z,3640.05
2023-03-11T09:38:02.705Z,3796.75
2023-03-11T09:39:02.675Z,3964.63
2023-03-11T09:40:02.656Z,4170.54
2023-03-11T09:41:02.697Z,4151.23
2023-03-11T09:42:02.645Z,4094.37
2023-03-11T09:43:02.679Z,3767.51
2023-03-11T09:44:02.639Z,3553.50
2023-03-11T09:45:02.627Z,3892.91
2023-03-11T09:46:02.594Z,3979.29
2023-03-11T09:47:02.700Z,3780.75
2023-03-11T09:48:02.561Z,3605.90
2023-03-11T09:49:06.009Z,3331.27
2023-03-11T09:50:02.532Z,3562.91
2023-03-11T09:51:02.535Z,3985.19
2023-03-11T09:52:02.522Z,3867.72
2023-03-11T09:53:02.538Z,4349.23
2023-03-11T09:54:02.477Z,5114.07
2023-03-11T09:55:02.478Z,5046.90
2023-03-11T09:56:02.478Z,5051.64
2023-03-11T09:57:02.442Z,5065.91
2023-03-11T09:58:02.439Z,5517.95
2023-03-11T09:59:02.461Z,5163.15
2023-03-11T10:00:02.406Z,5203.10
2023-03-11T10:01:02.407Z,4908.76
2023-03-11T10:02:02.432Z,5046.90
2023-03-11T10:03:02.457Z,4873.19
2023-03-11T10:04:02.353Z,4944.85
2023-03-11T10:05:02.372Z,5148.33
2023-03-11T10:06:02.344Z,5369.26
2023-03-11T10:07:02.333Z,5523.61
2023-03-11T10:08:02.365Z,5506.65
2023-03-11T10:09:02.495Z,5615.87
2023-03-11T10:10:02.286Z,5639.41
2023-03-11T10:11:02.321Z,6110.16
2023-03-11T10:12:02.900Z,6529.13
2023-03-11T10:13:02.251Z,6397.15
2023-03-11T10:14:02.238Z,6314.55
2023-03-11T10:15:02.222Z,5879.78
2023-03-11T10:16:02.277Z,5423.39
2023-03-11T10:17:02.232Z,5784.95
2023-03-11T10:18:02.192Z,5809.94
2023-03-11T10:19:02.202Z,6065.39
2023-03-11T10:20:02.210Z,6625.62
2023-03-11T10:21:02.157Z,6625.62
2023-03-11T10:22:02.180Z,6844.78
2023-03-11T10:23:02.163Z,6609.34
2023-03-11T10:24:02.109Z,6593.14
2023-03-11T10:25:02.103Z,6234.07
2023-03-11T10:26:02.097Z,6173.26
2023-03-11T10:27:02.093Z,6489.75
2023-03-11T10:28:02.076Z,6443.11
2023-03-11T10:29:02.133Z,6720.80
2023-03-11T10:30:02.085Z,6733.42
2023-03-11T10:31:02.042Z,7088.27
2023-03-11T10:32:02.146Z,7289.97
2023-03-11T10:33:02.014Z,6351.83
2023-03-11T10:34:01.991Z,5964.52
2023-03-11T10:35:02.012Z,6234.07
2023-03-11T10:36:01.980Z,5735.61
2023-03-11T10:37:01.954Z,5363.91
2023-03-11T10:38:01.985Z,5321.46
2023-03-11T10:39:01.931Z,5173.08
2023-03-11T10:40:01.935Z,5412.48
2023-03-11T10:41:01.950Z,5651.26
2023-03-11T10:42:01.887Z,5407.04
2023-03-11T10:43:01.896Z,5337.30
2023-03-11T10:44:01.870Z,5540.68
2023-03-11T10:45:01.876Z,5269.34
2023-03-11T10:46:01.881Z,5198.07
2023-03-11T10:47:01.863Z,5109.21
2023-03-11T10:48:01.837Z,5439.84
2023-03-11T10:49:01.806Z,5723.40
2023-03-11T10:50:01.818Z,5873.36
2023-03-11T10:51:01.816Z,5791.17
2023-03-11T10:52:01.806Z,5931.64
2023-03-11T10:53:01.798Z,5957.92
2023-03-11T10:54:01.833Z,6259.45
2023-03-11T10:55:01.737Z,6205.31
2023-03-11T10:56:01.745Z,6585.07
2023-03-11T10:57:01.740Z,6716.60
2023-03-11T10:58:01.700Z,6810.13
2023-03-11T10:59:01.754Z,6589.10
2023-03-11T11:00:01.680Z,6521.21
2023-03-11T11:01:01.776Z,6299.77
2023-03-11T11:02:01.668Z,6310.85
2023-03-11T11:03:01.649Z,6585.07
2023-03-11T11:04:01.705Z,6937.46
2023-03-11T11:05:01.645Z,6849.14
2023-03-11T11:06:01.604Z,7037.28
2023-03-11T11:07:01.612Z,6733.42
2023-03-11T11:08:01.591Z,6589.10
2023-03-11T11:09:01.568Z,6633.79
2023-03-11T11:10:01.580Z,6810.13
2023-03-11T11:11:01.610Z,6941.94
2023-03-11T11:12:01.595Z,7173.33
2023-03-11T11:13:01.536Z,6950.90
2023-03-11T11:14:01.511Z,6106.70
2023-03-11T11:15:01.510Z,6679.08
2023-03-11T11:16:01.547Z,7255.56
2023-03-11T11:17:01.594Z,7819.77
2023-03-11T11:18:01.477Z,7556.18
2023-03-11T11:19:01.464Z,7535.01
2023-03-11T11:20:01.451Z,7046.50
2023-03-11T11:21:01.433Z,6333.14
2023-03-11T11:22:01.425Z,6131.05
2023-03-11T11:23:01.450Z,6148.57
2023-03-11T11:24:01.396Z,5925.11
2023-03-11T11:25:01.417Z,5918.59
2023-03-11T11:26:01.372Z,6299.77
2023-03-11T11:27:01.381Z,6285.05
2023-03-11T11:28:01.338Z,6162.66
2023-03-11T11:29:01.371Z,6031.39
2023-03-11T11:30:01.325Z,6226.85
2023-03-11T11:31:01.371Z,6155.61
2023-03-11T11:32:01.315Z,6198.16
2023-03-11T11:33:01.299Z,6270.40
2023-03-11T11:34:01.285Z,6470.23
2023-03-11T11:35:01.309Z,6699.88
2023-03-11T11:36:01.311Z,6679.08
2023-03-11T11:37:01.264Z,6589.10
2023-03-11T11:38:01.219Z,6355.58
2023-03-11T11:39:01.204Z,5971.14
2023-03-11T11:40:01.202Z,5385.38
2023-03-11T11:41:01.232Z,5104.36
2023-03-11T11:42:01.187Z,4366.88
2023-03-11T11:43:01.157Z,4144.84
2023-03-11T11:44:01.144Z,4735.92
2023-03-11T11:45:01.132Z,5380.00
2023-03-11T11:46:01.231Z,5760.17
2023-03-11T11:47:01.141Z,5723.40
2023-03-11T11:48:01.104Z,6226.85
2023-03-11T11:49:01.076Z,6230.46
2023-03-11T11:50:01.092Z,5428.86
2023-03-11T11:51:01.058Z,5586.71
2023-03-11T11:52:01.070Z,5651.26
2023-03-11T11:53:01.058Z,5754.01
2023-03-11T11:54:01.023Z,5705.20
2023-03-11T11:55:01.010Z,5495.40
2023-03-11T11:56:01.010Z,5407.04
2023-03-11T11:57:01.009Z,5326.73
2023-03-11T11:58:00.970Z,4926.74
2023-03-11T11:59:01.001Z,4972.27
2023-03-11T12:00:00.973Z,5046.90
2023-03-11T12:01:00.946Z,5193.05
2023-03-11T12:02:00.940Z,4864.38
2023-03-11T12:03:00.911Z,4686.41
2023-03-11T12:04:00.983Z,4908.76
2023-03-11T12:05:00.929Z,4829.44
2023-03-11T12:06:00.950Z,4715.16
2023-03-11T12:07:00.872Z,4563.19
2023-03-11T12:08:00.846Z,4331.72
2023-03-11T12:09:00.838Z,4345.72
2023-03-11T12:10:10.089Z,4431.63
2023-03-11T12:11:00.867Z,4349.23
2023-03-11T12:12:00.843Z,4039.04
2023-03-11T12:13:00.831Z,3831.91
2023-03-11T12:14:00.807Z,3743.91